Time;durP1;ratioP1;P1;durP2;ratioP2;P2;SDS_P1;SDS_P2;PMS_P1;PMS_P2;Temp;Humidity;BMP_temperature;BMP_pressure;BME280_temperature;BME280_humidity;BME280_pressure;Samples;Min_cycle;Max_cycle;Signal;HPM_P1;HPM_P2
2022/10/28 00:01:44;;;;;;;;;;;;;;;;;;5054632;28;1242;-76
2022/10/28 00:04:10;;;;;;;;;;;;;;;;;;5055819;28;1914;-78
2022/10/28 00:06:36;;;;;;;;;;;;;;;;;;5056100;28;1167;-78
2022/10/28 00:09:03;;;;;;;;;;;;;;;;;;5055818;28;1337;-77
2022/10/28 00:11:30;;;;;;;;;;;;;;;;;;5073204;28;967;-76
2022/10/28 00:13:57;;;;;;;;;;;;;;;;;;5073891;28;1400;-75
2022/10/28 00:16:25;;;;;;;;;;;;;;;;;;5056050;28;941;-76
2022/10/28 00:18:52;;;;;;;;;;;;;;;;;;5074016;28;984;-76
2022/10/28 00:21:20;;;;;;;;;;;;;;;;;;5054857;28;1162;-79
2022/10/28 00:23:46;;;;;;;;;;;;;;;;;;5055723;28;1926;-74
2022/10/28 00:26:13;;;;;;;;;;;;;;;;;;5055602;28;1153;-78
2022/10/28 00:28:40;;;;;;;;;;;;;;;;;;5054197;28;1756;-76
2022/10/28 00:31:08;;;;;;;;;;;;;;;;;;5056959;28;1167;-76
2022/10/28 00:33:34;;;;;;;;;;;;;;;;;;5072806;28;972;-76
2022/10/28 00:36:07;;;;;;;;;;;;;;;;;;5071967;28;1925;-76
2022/10/28 00:38:33;;;;;;;;;;;;;;;;;;5066974;28;1155;-76
2022/10/28 00:40:59;;;;;;;;;;;;;;;;;;5073232;28;1136;-76
2022/10/28 00:43:33;;;;;;;;;;;;;;;;;;5072115;28;1906;-76
2022/10/28 00:45:59;;;;;;;;;;;;;;;;;;5073407;28;1334;-76
2022/10/28 00:48:27;;;;;;;;;;;;;;;;;;5072893;28;787;-75
2022/10/28 00:50:53;;;;;;;;;;;;;;;;;;5055155;28;1247;-76
2022/10/28 00:53:20;;;;;;;;;;;;;;;;;;5054438;28;1100;-76
2022/10/28 00:55:47;;;;;;;;;;;;;;;;;;5073221;28;1262;-76
2022/10/28 00:58:13;;;;;;;;;;;;;;;;;;5072790;28;1068;-76
2022/10/28 01:00:39;;;;;;;;;;;;;;;;;;5072269;28;1443;-76
2022/10/28 01:03:05;;;;;;;;;;;;;;;;;;5072549;28;1910;-76
2022/10/28 01:05:33;;;;;;;;;;;;;;;;;;5054845;28;1321;-75
2022/10/28 01:08:01;;;;;;;;;;;;;;;;;;5072975;28;1051;-75
2022/10/28 01:10:29;;;;;;;;;;;;;;;;;;5072713;28;1043;-76
2022/10/28 01:12:58;;;;;;;;;;;;;;;;;;5071456;28;948;-75
2022/10/28 01:15:26;;;;;;;;;;;;;;;;;;5072735;28;1300;-76
2022/10/28 01:17:54;;;;;;;;;;;;;;;;;;5054716;28;1289;-77
2022/10/28 01:20:36;;;;;;;;;;;;;;;;;;5072512;28;1059;-76
2022/10/28 01:23:04;;;;;;;;;;;;;;;;;;5054037;28;1921;-76
2022/10/28 01:25:35;;;;;;;;;;;;;;;;;;5072306;28;1296;-76
2022/10/28 01:28:07;;;;;;;;;;;;;;;;;;5072730;28;955;-76
2022/10/28 01:30:35;;;;;;;;;;;;;;;;;;5072520;28;1055;-77
2022/10/28 01:33:04;;;;;;;;;;;;;;;;;;5071798;28;1119;-76
2022/10/28 01:35:31;;;;;;;;;;;;;;;;;;5072414;28;1347;-76
2022/10/28 01:38:01;;;;;;;;;;;;;;;;;;5063027;28;2288;-77
2022/10/28 01:40:29;;;;;;;;;;;;;;;;;;5054354;28;1226;-76
2022/10/28 01:42:56;;;;;;;;;;;;;;;;;;5071684;28;933;-75
2022/10/28 01:45:22;;;;;;;;;;;;;;;;;;5072490;28;1977;-76
2022/10/28 01:47:49;;;;;;;;;;;;;;;;;;5072234;28;1370;-76
2022/10/28 01:50:18;;;;;;;;;;;;;;;;;;5053853;28;1136;-75
2022/10/28 01:52:44;;;;;;;;;;;;;;;;;;5071382;28;893;-73
2022/10/28 01:55:11;;;;;;;;;;;;;;;;;;5071879;28;1309;-74
2022/10/28 01:57:37;;;;;;;;;;;;;;;;;;5072055;28;758;-74
2022/10/28 02:00:04;;;;;;;;;;;;;;;;;;5071904;28;1107;-74
2022/10/28 02:02:38;;;;;;;;;;;;;;;;;;5070901;28;676;-74
2022/10/28 02:05:05;;;;;;;;;;;;;;;;;;5071747;28;1914;-72
2022/10/28 02:07:33;;;;;;;;;;;;;;;;;;5071576;28;1271;-74
2022/10/28 02:10:01;;;;;;;;;;;;;;;;;;5072092;28;937;-74
2022/10/28 02:12:28;;;;;;;;;;;;;;;;;;5052679;28;1012;-74
2022/10/28 02:14:58;;;;;;;;;;;;;;;;;;5071311;28;1408;-75
2022/10/28 02:17:26;;;;;;;;;;;;;;;;;;5071825;28;1048;-76
2022/10/28 02:19:53;;;;;;;;;;;;;;;;;;5071503;28;1064;-75
2022/10/28 02:22:20;;;;;;;;;;;;;;;;;;5070982;28;905;-75
2022/10/28 02:24:50;;;;;;;;;;;;;;;;;;5070069;28;1918;-74
2022/10/28 02:27:18;;;;;;;;;;;;;;;;;;5071442;28;968;-74
2022/10/28 02:29:45;;;;;;;;;;;;;;;;;;5071449;28;886;-74
2022/10/28 02:32:12;;;;;;;;;;;;;;;;;;5070500;28;1072;-73
2022/10/28 02:34:39;;;;;;;;;;;;;;;;;;5071069;28;1317;-74
2022/10/28 02:37:06;;;;;;;;;;;;;;;;;;5053495;28;1269;-75
2022/10/28 02:39:33;;;;;;;;;;;;;;;;;;5053550;28;1302;-76
2022/10/28 02:42:01;;;;;;;;;;;;;;;;;;5070622;28;952;-76
2022/10/28 02:44:28;;;;;;;;;;;;;;;;;;5052923;28;1922;-76
2022/10/28 02:46:54;;;;;;;;;;;;;;;;;;5071234;28;822;-76
2022/10/28 02:49:20;;;;;;;;;;;;;;;;;;5070741;28;1126;-76
2022/10/28 02:51:48;;;;;;;;;;;;;;;;;;5070240;28;1040;-75
2022/10/28 02:54:15;;;;;;;;;;;;;;;;;;5052444;28;1483;-75
2022/10/28 02:56:42;;;;;;;;;;;;;;;;;;5070971;28;1495;-76
2022/10/28 02:59:11;;;;;;;;;;;;;;;;;;5070297;28;862;-75
2022/10/28 03:01:37;;;;;;;;;;;;;;;;;;5070119;28;1055;-75
2022/10/28 03:04:03;;;;;;;;;;;;;;;;;;5070783;28;1914;-76
2022/10/28 03:06:30;;;;;;;;;;;;;;;;;;5070690;28;893;-75
2022/10/28 03:08:56;;;;;;;;;;;;;;;;;;5071004;28;1164;-75
2022/10/28 03:11:22;;;;;;;;;;;;;;;;;;5070701;28;1062;-75
2022/10/28 03:13:48;;;;;;;;;;;;;;;;;;5071414;28;1235;-75
2022/10/28 03:16:16;;;;;;;;;;;;;;;;;;5053966;28;1280;-73
2022/10/28 03:18:42;;;;;;;;;;;;;;;;;;5071964;28;828;-74
2022/10/28 03:21:08;;;;;;;;;;;;;;;;;;5071781;28;916;-75
2022/10/28 03:23:34;;;;;;;;;;;;;;;;;;5071289;28;1963;-75
2022/10/28 03:26:01;;;;;;;;;;;;;;;;;;5071958;28;1321;-75
2022/10/28 03:28:27;;;;;;;;;;;;;;;;;;5071116;28;969;-75
2022/10/28 03:30:53;;;;;;;;;;;;;;;;;;5052850;28;1267;-74
2022/10/28 03:33:20;;;;;;;;;;;;;;;;;;5069430;28;1078;-75
2022/10/28 03:35:47;;;;;;;;;;;;;;;;;;5072089;28;1325;-76
2022/10/28 03:38:13;;;;;;;;;;;;;;;;;;5074727;28;928;-75
2022/10/28 03:40:39;;;;;;;;;;;;;;;;;;5074168;28;793;-75
2022/10/28 03:43:05;;;;;;;;;;;;;;;;;;5073751;28;918;-75
2022/10/28 03:45:31;;;;;;;;;;;;;;;;;;5075468;28;1981;-75
2022/10/28 03:47:58;;;;;;;;;;;;;;;;;;5075911;28;1067;-75
2022/10/28 03:50:25;;;;;;;;;;;;;;;;;;5075082;28;857;-76
2022/10/28 03:52:51;;;;;;;;;;;;;;;;;;5074829;28;1055;-75
2022/10/28 03:55:18;;;;;;;;;;;;;;;;;;5075437;28;1281;-75
2022/10/28 03:57:44;;;;;;;;;;;;;;;;;;5073863;28;1043;-75
2022/10/28 04:00:10;;;;;;;;;;;;;;;;;;5074144;28;811;-75
2022/10/28 04:02:39;;;;;;;;;;;;;;;;;;5073560;28;1134;-75
2022/10/28 04:05:06;;;;;;;;;;;;;;;;;;5074058;28;1906;-74
2022/10/28 04:07:34;;;;;;;;;;;;;;;;;;5057244;28;1193;-74
2022/10/28 04:10:00;;;;;;;;;;;;;;;;;;5074508;28;987;-75
2022/10/28 04:12:26;;;;;;;;;;;;;;;;;;5073079;28;1063;-75
2022/10/28 04:14:53;;;;;;;;;;;;;;;;;;5073887;28;1392;-75
2022/10/28 04:17:19;;;;;;;;;;;;;;;;;;5073758;28;952;-75
2022/10/28 04:19:45;;;;;;;;;;;;;;;;;;5073447;28;1052;-75
2022/10/28 04:22:11;;;;;;;;;;;;;;;;;;5054963;28;1193;-74
2022/10/28 04:24:39;;;;;;;;;;;;;;;;;;5073021;28;1918;-75
2022/10/28 04:27:05;;;;;;;;;;;;;;;;;;5073742;28;770;-75
2022/10/28 04:29:32;;;;;;;;;;;;;;;;;;5055179;28;1152;-73
2022/10/28 04:31:58;;;;;;;;;;;;;;;;;;5054820;28;1223;-75
2022/10/28 04:34:24;;;;;;;;;;;;;;;;;;5050514;28;1640;-75
2022/10/28 04:36:50;;;;;;;;;;;;;;;;;;5056178;28;1469;-72
2022/10/28 04:39:16;;;;;;;;;;;;;;;;;;5072057;28;1481;-72
2022/10/28 04:41:44;;;;;;;;;;;;;;;;;;5057468;28;1129;-74
2022/10/28 04:44:10;;;;;;;;;;;;;;;;;;5048051;28;1887;-73
2022/10/28 04:46:36;;;;;;;;;;;;;;;;;;5070763;28;1300;-72
2022/10/28 04:49:03;;;;;;;;;;;;;;;;;;5063370;28;1424;-72
2022/10/28 04:51:29;;;;;;;;;;;;;;;;;;5065737;28;1490;-73
2022/10/28 04:53:55;;;;;;;;;;;;;;;;;;5073240;28;1388;-72
2022/10/28 04:56:21;;;;;;;;;;;;;;;;;;5074140;28;1410;-72
2022/10/28 04:58:49;;;;;;;;;;;;;;;;;;5073190;28;1087;-73
2022/10/28 05:01:15;;;;;;;;;;;;;;;;;;5072491;28;778;-73
2022/10/28 05:03:41;;;;;;;;;;;;;;;;;;5072681;28;1125;-74
2022/10/28 05:06:07;;;;;;;;;;;;;;;;;;5072779;28;1966;-74
2022/10/28 05:08:34;;;;;;;;;;;;;;;;;;5072912;28;749;-73
2022/10/28 05:11:00;;;;;;;;;;;;;;;;;;5072910;28;1055;-74
2022/10/28 05:13:26;;;;;;;;;;;;;;;;;;5071654;28;1132;-74
2022/10/28 05:15:53;;;;;;;;;;;;;;;;;;5072766;28;1269;-74
2022/10/28 05:18:20;;;;;;;;;;;;;;;;;;5054945;28;937;-72
2022/10/28 05:20:46;;;;;;;;;;;;;;;;;;5072110;28;1168;-73
2022/10/28 05:23:12;;;;;;;;;;;;;;;;;;5053319;28;1227;-70
2022/10/28 05:25:38;;;;;;;;;;;;;;;;;;5071529;28;2383;-72
2022/10/28 05:28:04;;;;;;;;;;;;;;;;;;5072100;28;1429;-73
2022/10/28 05:30:31;;;;;;;;;;;;;;;;;;5089538;22;3483;-74
2022/10/28 05:33:01;;;;;;;;;;;;;;;;;;5066795;28;1541;-74
2022/10/28 05:35:28;;;;;;;;;;;;;;;;;;5077423;28;1397;-73
2022/10/28 05:37:54;;;;;;;;;;;;;;;;;;5082528;28;1309;-73
2022/10/28 05:40:20;;;;;;;;;;;;;;;;;;5091226;28;1450;-73
2022/10/28 05:42:46;;;;;;;;;;;;;;;;;;5087383;28;1443;-73
2022/10/28 05:45:12;;;;;;;;;;;;;;;;;;5060767;28;1919;-73
2022/10/28 05:47:42;;;;;;;;;;;;;;;;;;5090458;28;1185;-74
2022/10/28 05:50:10;;;;;;;;;;;;;;;;;;5056287;28;1343;-74
2022/10/28 05:52:36;;;;;;;;;;;;;;;;;;5068516;28;1766;-75
2022/10/28 05:55:02;;;;;;;;;;;;;;;;;;5073143;28;1552;-73
2022/10/28 05:57:28;;;;;;;;;;;;;;;;;;5066138;28;1585;-75
2022/10/28 05:59:54;;;;;;;;;;;;;;;;;;5087749;28;1408;-74
2022/10/28 06:02:21;;;;;;;;;;;;;;;;;;5085179;28;1383;-75
2022/10/28 06:04:47;;;;;;;;;;;;;;;;;;5082837;28;1918;-74
2022/10/28 06:07:14;;;;;;;;;;;;;;;;;;5088389;28;1691;-74
2022/10/28 06:09:40;;;;;;;;;;;;;;;;;;5073745;28;1323;-74
2022/10/28 06:12:07;;;;;;;;;;;;;;;;;;5088853;28;1830;-74
2022/10/28 06:14:33;;;;;;;;;;;;;;;;;;5091377;28;1581;-75
2022/10/28 06:16:59;;;;;;;;;;;;;;;;;;5094370;28;1169;-74
2022/10/28 06:19:25;;;;;;;;;;;;;;;;;;5082361;28;1837;-72
2022/10/28 06:21:52;;;;;;;;;;;;;;;;;;5087018;28;1375;-73
2022/10/28 06:24:19;;;;;;;;;;;;;;;;;;5090644;28;1177;-73
2022/10/28 06:26:45;;;;;;;;;;;;;;;;;;5091584;28;1983;-74
2022/10/28 06:29:12;;;;;;;;;;;;;;;;;;5070317;28;1781;-73
2022/10/28 06:31:39;;;;;;;;;;;;;;;;;;5090290;28;1392;-73
2022/10/28 06:34:05;;;;;;;;;;;;;;;;;;5072964;28;1308;-73
2022/10/28 06:36:31;;;;;;;;;;;;;;;;;;5069555;28;1553;-73
2022/10/28 06:38:58;;;;;;;;;;;;;;;;;;5072733;28;1196;-73
2022/10/28 06:41:25;;;;;;;;;;;;;;;;;;5090361;28;1391;-73
2022/10/28 06:43:51;;;;;;;;;;;;;;;;;;5087139;28;1842;-72
2022/10/28 06:46:17;;;;;;;;;;;;;;;;;;5083856;28;1993;-73
2022/10/28 06:48:44;;;;;;;;;;;;;;;;;;5067162;28;1822;-73
2022/10/28 06:51:10;;;;;;;;;;;;;;;;;;5090530;28;1431;-72
2022/10/28 06:53:36;;;;;;;;;;;;;;;;;;5089810;28;1167;-73
2022/10/28 06:56:03;;;;;;;;;;;;;;;;;;5088092;28;1403;-71
2022/10/28 06:58:30;;;;;;;;;;;;;;;;;;5089410;28;1254;-73
2022/10/28 07:00:56;;;;;;;;;;;;;;;;;;5089542;28;1361;-72
2022/10/28 07:03:23;;;;;;;;;;;;;;;;;;5086135;28;1536;-71
2022/10/28 07:05:50;;;;;;;;;;;;;;;;;;5088648;28;1910;-72
2022/10/28 07:08:16;;;;;;;;;;;;;;;;;;5069140;28;1572;-72
2022/10/28 07:10:42;;;;;;;;;;;;;;;;;;5082982;28;1782;-71
2022/10/28 07:13:09;;;;;;;;;;;;;;;;;;5081001;28;1173;-71
2022/10/28 07:15:36;;;;;;;;;;;;;;;;;;5087412;28;1184;-73
2022/10/28 07:18:03;;;;;;;;;;;;;;;;;;5090735;28;1084;-72
2022/10/28 07:20:31;;;;;;;;;;;;;;;;;;5066066;28;1429;-73
2022/10/28 07:22:57;;;;;;;;;;;;;;;;;;5083480;28;1127;-72
2022/10/28 07:25:24;;;;;;;;;;;;;;;;;;5084661;28;1923;-73
2022/10/28 07:27:50;;;;;;;;;;;;;;;;;;5090288;28;1150;-70
2022/10/28 07:30:16;;;;;;;;;;;;;;;;;;5090318;28;1330;-72
2022/10/28 07:32:44;;;;;;;;;;;;;;;;;;5088684;28;1113;-74
2022/10/28 07:35:10;;;;;;;;;;;;;;;;;;5073331;28;1600;-72
2022/10/28 07:37:37;;;;;;;;;;;;;;;;;;5082122;28;1580;-73
2022/10/28 07:40:04;;;;;;;;;;;;;;;;;;5091791;28;1584;-73
2022/10/28 07:42:30;;;;;;;;;;;;;;;;;;5082363;28;1719;-71
2022/10/28 07:44:56;;;;;;;;;;;;;;;;;;5065335;28;1973;-73
2022/10/28 07:47:22;;;;;;;;;;;;;;;;;;5088700;28;1083;-72
2022/10/28 07:49:50;;;;;;;;;;;;;;;;;;5089723;28;1405;-73
2022/10/28 07:52:16;;;;;;;;;;;;;;;;;;5084166;28;1762;-73
2022/10/28 07:54:42;;;;;;;;;;;;;;;;;;5072227;28;1170;-73
2022/10/28 07:57:09;;;;;;;;;;;;;;;;;;5084270;28;1884;-73
2022/10/28 07:59:35;;;;;;;;;;;;;;;;;;5067567;28;1794;-72
2022/10/28 08:02:01;;;;;;;;;;;;;;;;;;5089355;28;1318;-74
2022/10/28 08:04:29;;;;;;;;;;;;;;;;;;5064577;28;1801;-73
2022/10/28 08:06:56;;;;;;;;;;;;;;;;;;5089847;28;1965;-72
2022/10/28 08:09:22;;;;;;;;;;;;;;;;;;5084324;28;1770;-72
2022/10/28 08:11:49;;;;;;;;;;;;;;;;;;5071044;28;1438;-73
2022/10/28 08:14:15;;;;;;;;;;;;;;;;;;5078456;28;1845;-73
2022/10/28 08:16:41;;;;;;;;;;;;;;;;;;5089004;28;1100;-71
2022/10/28 08:19:08;;;;;;;;;;;;;;;;;;5090132;28;1141;-73
2022/10/28 08:21:34;;;;;;;;;;;;;;;;;;5071971;28;1450;-72
2022/10/28 08:24:01;;;;;;;;;;;;;;;;;;5084668;28;1837;-72
2022/10/28 08:26:27;;;;;;;;;;;;;;;;;;5090855;28;1981;-71
2022/10/28 08:28:54;;;;;;;;;;;;;;;;;;5093651;28;1153;-70
2022/10/28 08:31:20;;;;;;;;;;;;;;;;;;5068254;28;1790;-70
2022/10/28 08:33:46;;;;;;;;;;;;;;;;;;5090708;28;1877;-73
2022/10/28 08:36:13;;;;;;;;;;;;;;;;;;5093170;28;1233;-73
2022/10/28 08:38:39;;;;;;;;;;;;;;;;;;5089006;28;1455;-72
2022/10/28 08:41:12;;;;;;;;;;;;;;;;;;5087341;28;1316;-73
2022/10/28 08:43:42;;;;;;;;;;;;;;;;;;5090360;28;1786;-70
2022/10/28 08:46:08;;;;;;;;;;;;;;;;;;5074797;28;1967;-73
2022/10/28 08:48:35;;;;;;;;;;;;;;;;;;5093401;28;1066;-72
2022/10/28 08:51:03;;;;;;;;;;;;;;;;;;5091429;28;1779;-71
2022/10/28 08:53:30;;;;;;;;;;;;;;;;;;5083728;28;1644;-71
2022/10/28 08:55:59;;;;;;;;;;;;;;;;;;5092906;28;1149;-72
2022/10/28 08:58:28;;;;;;;;;;;;;;;;;;5093425;28;920;-71
2022/10/28 09:00:55;;;;;;;;;;;;;;;;;;5088299;28;1766;-73
2022/10/28 09:03:22;;;;;;;;;;;;;;;;;;5090600;28;1739;-73
2022/10/28 09:05:49;;;;;;;;;;;;;;;;;;5092255;28;1967;-74
2022/10/28 09:08:19;;;;;;;;;;;;;;;;;;5092879;28;1620;-72
2022/10/28 09:10:48;;;;;;;;;;;;;;;;;;5092695;28;1359;-72
2022/10/28 09:13:17;;;;;;;;;;;;;;;;;;5082942;28;924;-74
2022/10/28 09:15:45;;;;;;;;;;;;;;;;;;5072333;28;984;-72
2022/10/28 09:18:12;;;;;;;;;;;;;;;;;;5073381;28;948;-74
2022/10/28 09:20:42;;;;;;;;;;;;;;;;;;5073916;28;1585;-72
2022/10/28 09:23:10;;;;;;;;;;;;;;;;;;5093002;28;1126;-73
2022/10/28 09:25:38;;;;;;;;;;;;;;;;;;5071481;28;1905;-73
2022/10/28 09:28:06;;;;;;;;;;;;;;;;;;5092648;28;1321;-72
2022/10/28 09:30:35;;;;;;;;;;;;;;;;;;5092362;28;1230;-73
2022/10/28 09:33:08;;;;;;;;;;;;;;;;;;5090983;28;1277;-72
2022/10/28 09:35:36;;;;;;;;;;;;;;;;;;5078641;28;1850;-71
2022/10/28 09:38:05;;;;;;;;;;;;;;;;;;5090251;28;1635;-75
2022/10/28 09:40:32;;;;;;;;;;;;;;;;;;5076198;28;1519;-73
2022/10/28 09:42:59;;;;;;;;;;;;;;;;;;5091384;28;1054;-73
2022/10/28 09:45:26;;;;;;;;;;;;;;;;;;5074081;28;1013;-73
2022/10/28 09:47:55;;;;;;;;;;;;;;;;;;5091989;28;1922;-73
2022/10/28 09:50:23;;;;;;;;;;;;;;;;;;5091998;28;1450;-74
2022/10/28 09:52:50;;;;;;;;;;;;;;;;;;5083942;28;1465;-73
2022/10/28 09:55:19;;;;;;;;;;;;;;;;;;5069839;28;1533;-74
2022/10/28 09:57:45;;;;;;;;;;;;;;;;;;5065302;28;1286;-74
2022/10/28 10:00:12;;;;;;;;;;;;;;;;;;5082444;28;1569;-74
2022/10/28 10:02:39;;;;;;;;;;;;;;;;;;5090820;28;1141;-74
2022/10/28 10:05:10;;;;;;;;;;;;;;;;;;5091769;28;1059;-73
2022/10/28 10:07:38;;;;;;;;;;;;;;;;;;5073050;28;1957;-73
2022/10/28 10:10:06;;;;;;;;;;;;;;;;;;5087825;28;1762;-73
2022/10/28 10:12:32;;;;;;;;;;;;;;;;;;5078978;28;1600;-74
2022/10/28 10:14:58;;;;;;;;;;;;;;;;;;5091307;28;1239;-73
2022/10/28 10:17:25;;;;;;;;;;;;;;;;;;5091180;28;1063;-73
2022/10/28 10:19:58;;;;;;;;;;;;;;;;;;5073470;28;1347;-73
2022/10/28 10:22:28;;;;;;;;;;;;;;;;;;5100233;28;1461;-73
2022/10/28 10:24:56;;;;;;;;;;;;;;;;;;5102127;28;1307;-74
2022/10/28 10:27:22;;;;;;;;;;;;;;;;;;5100644;28;1922;-72
2022/10/28 10:29:49;;;;;;;;;;;;;;;;;;5081910;28;1495;-71
2022/10/28 10:32:16;;;;;;;;;;;;;;;;;;5083344;28;1437;-74
2022/10/28 10:34:43;;;;;;;;;;;;;;;;;;5077483;28;1329;-72
2022/10/28 10:37:13;;;;;;;;;;;;;;;;;;5090611;28;1442;-73
2022/10/28 10:39:40;;;;;;;;;;;;;;;;;;5090838;28;1084;-73
2022/10/28 10:42:16;;;;;;;;;;;;;;;;;;5090440;28;1289;-74
2022/10/28 10:44:42;;;;;;;;;;;;;;;;;;5090025;28;937;-71
2022/10/28 10:47:16;;;;;;;;;;;;;;;;;;5081625;28;1918;-74
2022/10/28 10:49:42;;;;;;;;;;;;;;;;;;5052505;28;1465;-74
2022/10/28 10:52:15;;;;;;;;;;;;;;;;;;5068876;28;1830;-74
2022/10/28 10:54:41;;;;;;;;;;;;;;;;;;5090860;28;1111;-74
2022/10/28 10:57:07;;;;;;;;;;;;;;;;;;5083121;28;1438;-74
2022/10/28 10:59:36;;;;;;;;;;;;;;;;;;5086785;28;1371;-74
2022/10/28 11:02:02;;;;;;;;;;;;;;;;;;5089860;28;1361;-74
2022/10/28 11:04:29;;;;;;;;;;;;;;;;;;5091045;28;1059;-74
2022/10/28 11:06:56;;;;;;;;;;;;;;;;;;5072479;28;1977;-74
2022/10/28 11:09:22;;;;;;;;;;;;;;;;;;5090879;28;985;-76
2022/10/28 11:11:49;;;;;;;;;;;;;;;;;;5086590;28;1449;-74
2022/10/28 11:14:20;;;;;;;;;;;;;;;;;;5071699;28;2088;-75
2022/10/28 11:16:51;;;;;;;;;;;;;;;;;;5089563;28;1027;-75
2022/10/28 11:19:19;;;;;;;;;;;;;;;;;;5090487;28;782;-73
2022/10/28 11:21:48;;;;;;;;;;;;;;;;;;5089343;28;1297;-74
2022/10/28 11:24:19;;;;;;;;;;;;;;;;;;5068459;28;1429;-75
2022/10/28 11:26:53;;;;;;;;;;;;;;;;;;5086317;28;1898;-75
2022/10/28 11:29:19;;;;;;;;;;;;;;;;;;5090063;28;1390;-76
2022/10/28 11:31:50;;;;;;;;;;;;;;;;;;5088102;28;1648;-75
2022/10/28 11:34:21;;;;;;;;;;;;;;;;;;5068800;28;1492;-72
2022/10/28 11:36:49;;;;;;;;;;;;;;;;;;5085810;22;3537;-74
2022/10/28 11:39:19;;;;;;;;;;;;;;;;;;5055497;28;1141;-75
2022/10/28 11:41:49;;;;;;;;;;;;;;;;;;5049138;28;1040;-75
2022/10/28 11:44:18;;;;;;;;;;;;;;;;;;5049917;28;1269;-75
2022/10/28 11:46:46;;;;;;;;;;;;;;;;;;5042190;28;1985;-75
2022/10/28 11:49:34;;;;;;;;;;;;;;;;;;5040767;28;1200;-75
2022/10/28 11:52:03;;;;;;;;;;;;;;;;;;5044460;28;1413;-74
2022/10/28 11:54:31;;;;;;;;;;;;;;;;;;5068687;28;1423;-74
2022/10/28 11:56:58;;;;;;;;;;;;;;;;;;5053443;28;1525;-73
2022/10/28 11:59:33;;;;;;;;;;;;;;;;;;5074019;28;945;-73
2022/10/28 12:02:02;;;;;;;;;;;;;;;;;;5072802;28;1399;-75
2022/10/28 12:04:35;;;;;;;;;;;;;;;;;;5054852;28;1383;-74
2022/10/28 12:07:07;;;;;;;;;;;;;;;;;;5072060;28;1918;-74
2022/10/28 12:09:37;;;;;;;;;;;;;;;;;;5073134;28;1159;-74
2022/10/28 12:12:06;;;;;;;;;;;;;;;;;;5073104;28;1068;-75
2022/10/28 12:14:35;;;;;;;;;;;;;;;;;;5058455;28;1458;-74
2022/10/28 12:17:05;;;;;;;;;;;;;;;;;;5075789;28;1513;-75
2022/10/28 12:19:32;;;;;;;;;;;;;;;;;;5060725;28;1176;-74
2022/10/28 12:21:59;;;;;;;;;;;;;;;;;;5055157;28;1199;-75
2022/10/28 12:24:27;;;;;;;;;;;;;;;;;;5056494;28;719;-75
2022/10/28 12:26:54;;;;;;;;;;;;;;;;;;5074067;28;1989;-75
2022/10/28 12:29:21;;;;;;;;;;;;;;;;;;5079645;28;1427;-76
2022/10/28 12:31:48;;;;;;;;;;;;;;;;;;5080084;28;1356;-74
2022/10/28 12:34:15;;;;;;;;;;;;;;;;;;5079803;28;1162;-75
2022/10/28 12:36:42;;;;;;;;;;;;;;;;;;5073699;28;1408;-75
2022/10/28 12:39:11;;;;;;;;;;;;;;;;;;5081443;28;1469;-75
2022/10/28 12:41:47;;;;;;;;;;;;;;;;;;5050220;28;1158;-74
2022/10/28 12:44:14;;;;;;;;;;;;;;;;;;5074380;28;1091;-74
2022/10/28 12:46:48;;;;;;;;;;;;;;;;;;5071279;28;1969;-75
2022/10/28 12:49:16;;;;;;;;;;;;;;;;;;5080090;28;1384;-76
2022/10/28 12:51:42;;;;;;;;;;;;;;;;;;5059071;28;1212;-75
2022/10/28 12:54:14;;;;;;;;;;;;;;;;;;5054426;28;830;-76
2022/10/28 12:56:42;;;;;;;;;;;;;;;;;;5065227;28;1424;-76
2022/10/28 12:59:11;;;;;;;;;;;;;;;;;;5064167;28;1225;-76
2022/10/28 13:01:37;;;;;;;;;;;;;;;;;;5051697;28;928;-75
2022/10/28 13:04:03;;;;;;;;;;;;;;;;;;5073227;28;1435;-76
2022/10/28 13:06:40;;;;;;;;;;;;;;;;;;5073802;28;1432;-75
2022/10/28 13:09:13;;;;;;;;;;;;;;;;;;5072183;28;1241;-76
2022/10/28 13:11:47;;;;;;;;;;;;;;;;;;5073244;28;1127;-75
2022/10/28 13:14:17;;;;;;;;;;;;;;;;;;5073895;28;1450;-75
2022/10/28 13:16:56;;;;;;;;;;;;;;;;;;5073320;28;1423;-75
2022/10/28 13:19:28;;;;;;;;;;;;;;;;;;5073302;28;1574;-74
2022/10/28 13:21:59;;;;;;;;;;;;;;;;;;5054694;28;1200;-74
2022/10/28 13:24:26;;;;;;;;;;;;;;;;;;5055461;28;1148;-74
2022/10/28 13:26:52;;;;;;;;;;;;;;;;;;5079861;28;1914;-75
2022/10/28 13:29:21;;;;;;;;;;;;;;;;;;5055098;28;1513;-74
2022/10/28 13:31:47;;;;;;;;;;;;;;;;;;5075769;28;1490;-74
2022/10/28 13:34:14;;;;;;;;;;;;;;;;;;5069470;28;1161;-75
2022/10/28 13:36:41;;;;;;;;;;;;;;;;;;5059369;28;1381;-74
2022/10/28 13:39:23;;;;;;;;;;;;;;;;;;5069116;28;1458;-75
2022/10/28 13:41:49;;;;;;;;;;;;;;;;;;5072582;28;1459;-75
2022/10/28 13:44:24;;;;;;;;;;;;;;;;;;5066717;28;1418;-74
2022/10/28 13:47:20;;;;;;;;;;;;;;;;;;5073006;28;1689;-75
2022/10/28 13:50:08;;;;;;;;;;;;;;;;;;5053135;28;1550;-72
2022/10/28 13:52:35;;;;;;;;;;;;;;;;;;5034085;28;1215;-73
2022/10/28 13:55:16;;;;;;;;;;;;;;;;;;5069891;28;1160;-74
2022/10/28 13:57:43;;;;;;;;;;;;;;;;;;5072523;28;1566;-74
2022/10/28 14:00:31;;;;;;;;;;;;;;;;;;5072206;28;1589;-76
2022/10/28 14:02:59;;;;;;;;;;;;;;;;;;5077447;28;1486;-73
2022/10/28 14:05:26;;;;;;;;;;;;;;;;;;5070828;28;1483;-73
2022/10/28 14:07:53;;;;;;;;;;;;;;;;;;5063687;28;1969;-74
2022/10/28 14:10:21;;;;;;;;;;;;;;;;;;5070820;28;1402;-75
2022/10/28 14:12:48;;;;;;;;;;;;;;;;;;5054542;28;1328;-74
2022/10/28 14:15:18;;;;;;;;;;;;;;;;;;5072607;28;1233;-75
2022/10/28 14:17:45;;;;;;;;;;;;;;;;;;5074122;28;1490;-74
2022/10/28 14:20:23;;;;;;;;;;;;;;;;;;5072182;28;1172;-75
2022/10/28 14:22:51;;;;;;;;;;;;;;;;;;5069800;28;1415;-74
2022/10/28 14:25:38;;;;;;;;;;;;;;;;;;5054064;28;1134;-74
2022/10/28 14:28:14;;;;;;;;;;;;;;;;;;5054431;28;1925;-75
2022/10/28 14:30:41;;;;;;;;;;;;;;;;;;5071288;28;1205;-75
2022/10/28 14:33:25;;;;;;;;;;;;;;;;;;5071294;28;1138;-74
2022/10/28 14:35:54;;;;;;;;;;;;;;;;;;5051469;28;1483;-74
2022/10/28 14:38:39;;;;;;;;;;;;;;;;;;5071915;28;1503;-74
2022/10/28 14:41:09;;;;;;;;;;;;;;;;;;5071222;28;1207;-72
2022/10/28 14:43:41;;;;;;;;;;;;;;;;;;5070120;28;1346;-74
2022/10/28 14:46:11;;;;;;;;;;;;;;;;;;5074137;28;1493;-74
2022/10/28 14:48:42;;;;;;;;;;;;;;;;;;5057954;28;1973;-75
2022/10/28 14:51:12;;;;;;;;;;;;;;;;;;5051677;28;1092;-74
2022/10/28 14:53:38;;;;;;;;;;;;;;;;;;5050951;28;877;-75
2022/10/28 14:56:05;;;;;;;;;;;;;;;;;;5053001;28;1542;-74
2022/10/28 14:58:32;;;;;;;;;;;;;;;;;;5072074;28;1610;-74
2022/10/28 15:01:06;;;;;;;;;;;;;;;;;;5071550;28;1161;-74
2022/10/28 15:03:32;;;;;;;;;;;;;;;;;;5053186;28;1210;-74
2022/10/28 15:06:01;;;;;;;;;;;;;;;;;;5072110;28;1372;-74
2022/10/28 15:08:28;;;;;;;;;;;;;;;;;;5070612;28;1906;-74
2022/10/28 15:10:55;;;;;;;;;;;;;;;;;;5070074;28;1462;-75
2022/10/28 15:13:21;;;;;;;;;;;;;;;;;;5065125;28;1262;-74
2022/10/28 15:15:53;;;;;;;;;;;;;;;;;;5073853;28;1443;-73
2022/10/28 15:18:21;;;;;;;;;;;;;;;;;;5063411;28;1094;-75
2022/10/28 15:20:48;;;;;;;;;;;;;;;;;;5070521;28;1546;-75
2022/10/28 15:23:16;;;;;;;;;;;;;;;;;;5059562;28;1220;-76
2022/10/28 15:25:43;;;;;;;;;;;;;;;;;;5033337;28;1300;-75
2022/10/28 15:28:10;;;;;;;;;;;;;;;;;;5058566;28;1910;-75
2022/10/28 15:30:36;;;;;;;;;;;;;;;;;;5065684;28;1130;-73
2022/10/28 15:33:17;;;;;;;;;;;;;;;;;;5052170;28;1486;-75
2022/10/28 15:35:43;;;;;;;;;;;;;;;;;;5070245;28;1467;-76
2022/10/28 15:38:26;;;;;;;;;;;;;;;;;;5072315;28;1415;-75
2022/10/28 15:40:53;;;;;;;;;;;;;;;;;;5054987;28;1204;-73
2022/10/28 15:43:19;;;;;;;;;;;;;;;;;;5050199;28;1064;-74
2022/10/28 15:45:46;;;;;;;;;;;;;;;;;;5069893;28;1443;-75
2022/10/28 15:48:12;;;;;;;;;;;;;;;;;;5069834;28;1902;-75
2022/10/28 15:50:38;;;;;;;;;;;;;;;;;;5051400;28;1079;-75
2022/10/28 15:53:23;;;;;;;;;;;;;;;;;;5032651;28;1157;-75
2022/10/28 15:56:08;;;;;;;;;;;;;;;;;;5051306;28;1330;-75
2022/10/28 15:58:39;;;;;;;;;;;;;;;;;;5062341;28;1427;-75
2022/10/28 16:01:07;;;;;;;;;;;;;;;;;;5064495;28;1411;-78
2022/10/28 16:03:43;;;;;;;;;;;;;;;;;;5070931;28;1344;-76
2022/10/28 16:06:19;;;;;;;;;;;;;;;;;;5077537;28;1811;-76
2022/10/28 16:08:45;;;;;;;;;;;;;;;;;;5045985;28;1909;-75
2022/10/28 16:11:15;;;;;;;;;;;;;;;;;;5051235;28;1123;-75
2022/10/28 16:13:45;;;;;;;;;;;;;;;;;;5033418;28;1493;-76
2022/10/28 16:16:12;;;;;;;;;;;;;;;;;;5051220;28;1379;-76
2022/10/28 16:18:39;;;;;;;;;;;;;;;;;;5051657;28;906;-76
2022/10/28 16:21:05;;;;;;;;;;;;;;;;;;5033726;28;1393;-76
2022/10/28 16:23:36;;;;;;;;;;;;;;;;;;5050911;28;771;-75
2022/10/28 16:26:02;;;;;;;;;;;;;;;;;;5033220;28;1333;-75
2022/10/28 16:28:30;;;;;;;;;;;;;;;;;;5051458;28;1903;-75
2022/10/28 16:30:57;;;;;;;;;;;;;;;;;;5051350;28;783;-75
2022/10/28 16:33:25;;;;;;;;;;;;;;;;;;5040884;28;1527;-75
2022/10/28 16:35:51;;;;;;;;;;;;;;;;;;5070677;28;1360;-74
2022/10/28 16:38:17;;;;;;;;;;;;;;;;;;5071464;28;1087;-76
2022/10/28 16:40:43;;;;;;;;;;;;;;;;;;5075243;28;1138;-75
2022/10/28 16:43:13;;;;;;;;;;;;;;;;;;5071242;28;1056;-76
2022/10/28 16:45:41;;;;;;;;;;;;;;;;;;5074234;28;1361;-75
2022/10/28 16:48:08;;;;;;;;;;;;;;;;;;5073836;28;1933;-75
2022/10/28 16:50:35;;;;;;;;;;;;;;;;;;5074773;28;1064;-74
2022/10/28 16:53:01;;;;;;;;;;;;;;;;;;5073772;28;1119;-75
2022/10/28 16:55:28;;;;;;;;;;;;;;;;;;5074679;28;1296;-75
2022/10/28 16:57:54;;;;;;;;;;;;;;;;;;5074865;28;968;-76
2022/10/28 17:00:20;;;;;;;;;;;;;;;;;;5075083;28;929;-75
2022/10/28 17:02:49;;;;;;;;;;;;;;;;;;5073921;28;866;-76
2022/10/28 17:05:16;;;;;;;;;;;;;;;;;;5074387;28;842;-75
2022/10/28 17:07:42;;;;;;;;;;;;;;;;;;5057098;28;1564;-75
2022/10/28 17:10:09;;;;;;;;;;;;;;;;;;5074839;28;1975;-75
2022/10/28 17:12:35;;;;;;;;;;;;;;;;;;5072792;28;1110;-76